sensor_id;sensor_type;location;lat;lon;timestamp;temperature;humidity
11609;DHT22;5860;52.018;8.536;2023-09-18T00:00:48;18.40;99.90
11609;DHT22;5860;52.018;8.536;2023-09-18T00:03:19;18.40;99.90
11609;DHT22;5860;52.018;8.536;2023-09-18T00:05:48;18.40;99.90
11609;DHT22;5860;52.018;8.536;2023-09-18T00:08:16;18.30;99.90
11609;DHT22;5860;52.018;8.536;2023-09-18T00:10:47;18.40;99.90
11609;DHT22;5860;52.018;8.536;2023-09-18T00:13:14;18.40;99.90
11609;DHT22;5860;52.018;8.536;2023-09-18T00:15:41;18.40;99.90
11609;DHT22;5860;52.018;8.536;2023-09-18T00:18:09;18.40;99.90
11609;DHT22;5860;52.018;8.536;2023-09-18T00:20:36;18.40;99.90
11609;DHT22;5860;52.018;8.536;2023-09-18T00:23:03;18.50;99.90
11609;DHT22;5860;52.018;8.536;2023-09-18T00:25:30;18.50;99.90
11609;DHT22;5860;52.018;8.536;2023-09-18T00:27:58;18.40;99.90
11609;DHT22;5860;52.018;8.536;2023-09-18T00:30:25;18.40;99.90
11609;DHT22;5860;52.018;8.536;2023-09-18T00:32:52;18.30;99.90
11609;DHT22;5860;52.018;8.536;2023-09-18T00:35:19;18.30;99.90
11609;DHT22;5860;52.018;8.536;2023-09-18T00:37:46;18.30;99.90
11609;DHT22;5860;52.018;8.536;2023-09-18T00:40:13;18.30;99.90
11609;DHT22;5860;52.018;8.536;2023-09-18T00:42:40;18.20;99.90
11609;DHT22;5860;52.018;8.536;2023-09-18T00:45:07;18.10;99.90
11609;DHT22;5860;52.018;8.536;2023-09-18T00:47:36;18.10;99.90
11609;DHT22;5860;52.018;8.536;2023-09-18T00:50:04;18.10;99.90
11609;DHT22;5860;52.018;8.536;2023-09-18T00:52:34;18.00;99.90
11609;DHT22;5860;52.018;8.536;2023-09-18T00:55:02;17.90;99.90
11609;DHT22;5860;52.018;8.536;2023-09-18T00:57:28;17.90;99.90
11609;DHT22;5860;52.018;8.536;2023-09-18T00:59:56;17.90;99.90
11609;DHT22;5860;52.018;8.536;2023-09-18T01:02:23;17.80;99.90
11609;DHT22;5860;52.018;8.536;2023-09-18T01:04:50;17.90;99.90
11609;DHT22;5860;52.018;8.536;2023-09-18T01:07:17;17.80;99.90
11609;DHT22;5860;52.018;8.536;2023-09-18T01:09:44;17.80;99.90
11609;DHT22;5860;52.018;8.536;2023-09-18T01:12:23;17.90;99.90
11609;DHT22;5860;52.018;8.536;2023-09-18T01:15:16;17.80;99.90
11609;DHT22;5860;52.018;8.536;2023-09-18T01:17:44;17.80;99.90
11609;DHT22;5860;52.018;8.536;2023-09-18T01:20:12;17.80;99.90
11609;DHT22;5860;52.018;8.536;2023-09-18T01:22:39;17.80;99.90
11609;DHT22;5860;52.018;8.536;2023-09-18T01:25:07;17.80;99.90
11609;DHT22;5860;52.018;8.536;2023-09-18T01:27:34;17.70;99.90
11609;DHT22;5860;52.018;8.536;2023-09-18T01:30:01;17.70;99.90
11609;DHT22;5860;52.018;8.536;2023-09-18T01:32:30;17.70;99.90
11609;DHT22;5860;52.018;8.536;2023-09-18T01:35:00;17.70;99.90
11609;DHT22;5860;52.018;8.536;2023-09-18T01:37:30;17.80;99.90
11609;DHT22;5860;52.018;8.536;2023-09-18T01:39:58;17.80;99.90
11609;DHT22;5860;52.018;8.536;2023-09-18T01:42:27;17.80;99.90
11609;DHT22;5860;52.018;8.536;2023-09-18T01:44:54;17.90;99.90
11609;DHT22;5860;52.018;8.536;2023-09-18T01:47:22;17.80;99.90
11609;DHT22;5860;52.018;8.536;2023-09-18T01:49:54;17.80;99.90
11609;DHT22;5860;52.018;8.536;2023-09-18T01:52:21;17.70;99.90
11609;DHT22;5860;52.018;8.536;2023-09-18T01:54:48;17.90;99.90
11609;DHT22;5860;52.018;8.536;2023-09-18T01:57:15;17.80;99.90
11609;DHT22;5860;52.018;8.536;2023-09-18T01:59:42;17.80;99.90
11609;DHT22;5860;52.018;8.536;2023-09-18T02:02:10;17.80;99.90
11609;DHT22;5860;52.018;8.536;2023-09-18T02:04:47;17.80;99.90
11609;DHT22;5860;52.018;8.536;2023-09-18T02:07:34;17.70;99.90
11609;DHT22;5860;52.018;8.536;2023-09-18T02:10:02;17.70;99.90
11609;DHT22;5860;52.018;8.536;2023-09-18T02:12:30;17.70;99.90
11609;DHT22;5860;52.018;8.536;2023-09-18T02:14:56;17.60;99.90
11609;DHT22;5860;52.018;8.536;2023-09-18T02:17:25;17.70;99.90
11609;DHT22;5860;52.018;8.536;2023-09-18T02:19:52;17.60;99.90
11609;DHT22;5860;52.018;8.536;2023-09-18T02:22:19;17.60;99.90
11609;DHT22;5860;52.018;8.536;2023-09-18T02:24:46;17.60;99.90
11609;DHT22;5860;52.018;8.536;2023-09-18T02:27:13;17.60;99.90
11609;DHT22;5860;52.018;8.536;2023-09-18T02:29:42;17.60;99.90
11609;DHT22;5860;52.018;8.536;2023-09-18T02:32:09;17.70;99.90
11609;DHT22;5860;52.018;8.536;2023-09-18T02:34:37;17.70;99.90
11609;DHT22;5860;52.018;8.536;2023-09-18T02:37:04;17.70;99.90
11609;DHT22;5860;52.018;8.536;2023-09-18T02:39:31;17.70;99.90
11609;DHT22;5860;52.018;8.536;2023-09-18T02:41:58;17.80;99.90
11609;DHT22;5860;52.018;8.536;2023-09-18T02:44:24;17.80;99.90
11609;DHT22;5860;52.018;8.536;2023-09-18T02:46:51;17.80;99.90
11609;DHT22;5860;52.018;8.536;2023-09-18T02:49:19;17.80;99.90
11609;DHT22;5860;52.018;8.536;2023-09-18T02:58:15;18.10;99.90
11609;DHT22;5860;52.018;8.536;2023-09-18T03:00:43;18.80;99.90
11609;DHT22;5860;52.018;8.536;2023-09-18T03:03:11;20.30;99.90
11609;DHT22;5860;52.018;8.536;2023-09-18T03:05:39;20.70;99.90
11609;DHT22;5860;52.018;8.536;2023-09-18T03:08:06;21.10;12.20
11609;DHT22;5860;52.018;8.536;2023-09-18T03:10:38;21.40;1.00
11609;DHT22;5860;52.018;8.536;2023-09-18T03:13:10;21.40;1.00
11609;DHT22;5860;52.018;8.536;2023-09-18T03:15:37;21.60;99.90
11609;DHT22;5860;52.018;8.536;2023-09-18T03:18:05;21.90;99.90
11609;DHT22;5860;52.018;8.536;2023-09-18T03:20:34;21.70;65.20
11609;DHT22;5860;52.018;8.536;2023-09-18T03:23:02;22.00;1.00
11609;DHT22;5860;52.018;8.536;2023-09-18T03:25:29;21.90;1.00
11609;DHT22;5860;52.018;8.536;2023-09-18T03:28:15;21.90;1.00
11609;DHT22;5860;52.018;8.536;2023-09-18T03:30:41;21.90;99.90
11609;DHT22;5860;52.018;8.536;2023-09-18T03:33:08;21.90;99.90
11609;DHT22;5860;52.018;8.536;2023-09-18T03:35:45;21.80;1.00
11609;DHT22;5860;52.018;8.536;2023-09-18T03:38:13;22.00;99.90
11609;DHT22;5860;52.018;8.536;2023-09-18T03:40:40;21.80;99.90
11609;DHT22;5860;52.018;8.536;2023-09-18T03:43:08;21.80;99.90
11609;DHT22;5860;52.018;8.536;2023-09-18T03:45:36;21.50;1.00
11609;DHT22;5860;52.018;8.536;2023-09-18T03:48:03;21.50;1.00
11609;DHT22;5860;52.018;8.536;2023-09-18T03:50:30;21.50;1.00
11609;DHT22;5860;52.018;8.536;2023-09-18T03:52:58;21.50;1.00
11609;DHT22;5860;52.018;8.536;2023-09-18T03:55:25;21.50;1.00
11609;DHT22;5860;52.018;8.536;2023-09-18T03:57:52;21.40;1.00
11609;DHT22;5860;52.018;8.536;2023-09-18T04:00:21;20.80;99.90
11609;DHT22;5860;52.018;8.536;2023-09-18T04:02:48;20.60;1.00
11609;DHT22;5860;52.018;8.536;2023-09-18T04:05:16;20.70;1.00
11609;DHT22;5860;52.018;8.536;2023-09-18T04:07:42;20.80;99.90
11609;DHT22;5860;52.018;8.536;2023-09-18T04:10:14;21.40;1.00
11609;DHT22;5860;52.018;8.536;2023-09-18T04:12:50;21.60;1.00
11609;DHT22;5860;52.018;8.536;2023-09-18T04:15:18;21.90;1.00
11609;DHT22;5860;52.018;8.536;2023-09-18T04:17:45;21.90;1.00
11609;DHT22;5860;52.018;8.536;2023-09-18T04:20:13;22.00;1.00
11609;DHT22;5860;52.018;8.536;2023-09-18T04:22:47;21.90;37.30
11609;DHT22;5860;52.018;8.536;2023-09-18T04:25:18;21.90;1.00
11609;DHT22;5860;52.018;8.536;2023-09-18T04:27:47;21.70;99.90
11609;DHT22;5860;52.018;8.536;2023-09-18T04:30:17;21.70;99.90
11609;DHT22;5860;52.018;8.536;2023-09-18T04:32:46;21.70;99.90
11609;DHT22;5860;52.018;8.536;2023-09-18T04:35:14;21.60;99.90
11609;DHT22;5860;52.018;8.536;2023-09-18T04:37:41;21.70;99.90
11609;DHT22;5860;52.018;8.536;2023-09-18T04:40:08;21.70;99.90
11609;DHT22;5860;52.018;8.536;2023-09-18T04:42:39;21.60;75.30
11609;DHT22;5860;52.018;8.536;2023-09-18T04:45:09;21.60;99.90
11609;DHT22;5860;52.018;8.536;2023-09-18T04:47:36;21.60;74.50
11609;DHT22;5860;52.018;8.536;2023-09-18T04:50:03;21.60;99.90
11609;DHT22;5860;52.018;8.536;2023-09-18T04:52:39;21.60;34.00
11609;DHT22;5860;52.018;8.536;2023-09-18T04:55:07;21.60;77.10
11609;DHT22;5860;52.018;8.536;2023-09-18T04:57:35;21.60;1.00
11609;DHT22;5860;52.018;8.536;2023-09-18T05:00:03;21.60;88.20
11609;DHT22;5860;52.018;8.536;2023-09-18T05:02:43;21.60;99.90
11609;DHT22;5860;52.018;8.536;2023-09-18T05:05:10;21.70;1.00
11609;DHT22;5860;52.018;8.536;2023-09-18T05:07:38;21.70;1.00
11609;DHT22;5860;52.018;8.536;2023-09-18T05:10:05;21.70;1.00
11609;DHT22;5860;52.018;8.536;2023-09-18T05:12:32;21.70;1.00
11609;DHT22;5860;52.018;8.536;2023-09-18T05:14:59;21.70;1.00
11609;DHT22;5860;52.018;8.536;2023-09-18T05:17:47;21.70;1.00
11609;DHT22;5860;52.018;8.536;2023-09-18T05:20:16;21.70;1.00
11609;DHT22;5860;52.018;8.536;2023-09-18T05:22:44;21.60;99.90
11609;DHT22;5860;52.018;8.536;2023-09-18T05:25:12;21.50;1.00
11609;DHT22;5860;52.018;8.536;2023-09-18T05:27:41;21.10;99.90
11609;DHT22;5860;52.018;8.536;2023-09-18T05:30:18;21.00;1.00
11609;DHT22;5860;52.018;8.536;2023-09-18T05:32:47;20.90;1.00
11609;DHT22;5860;52.018;8.536;2023-09-18T05:35:15;20.80;1.00
11609;DHT22;5860;52.018;8.536;2023-09-18T05:37:43;20.80;1.00
11609;DHT22;5860;52.018;8.536;2023-09-18T05:40:12;20.90;1.00
11609;DHT22;5860;52.018;8.536;2023-09-18T05:42:41;20.90;1.00
11609;DHT22;5860;52.018;8.536;2023-09-18T05:45:13;20.90;1.00
11609;DHT22;5860;52.018;8.536;2023-09-18T05:47:41;21.00;1.00
11609;DHT22;5860;52.018;8.536;2023-09-18T05:50:11;20.90;1.00
11609;DHT22;5860;52.018;8.536;2023-09-18T05:52:47;20.90;1.00
11609;DHT22;5860;52.018;8.536;2023-09-18T05:55:15;20.90;1.00
11609;DHT22;5860;52.018;8.536;2023-09-18T05:57:42;20.90;99.90
11609;DHT22;5860;52.018;8.536;2023-09-18T06:00:10;20.90;99.90
11609;DHT22;5860;52.018;8.536;2023-09-18T06:02:40;21.00;99.90
11609;DHT22;5860;52.018;8.536;2023-09-18T06:05:08;20.90;99.90
11609;DHT22;5860;52.018;8.536;2023-09-18T06:07:39;21.00;99.90
11609;DHT22;5860;52.018;8.536;2023-09-18T06:10:06;21.00;99.90
11609;DHT22;5860;52.018;8.536;2023-09-18T06:12:34;21.00;99.90
11609;DHT22;5860;52.018;8.536;2023-09-18T06:15:03;21.00;99.90
11609;DHT22;5860;52.018;8.536;2023-09-18T06:17:31;21.00;99.90
11609;DHT22;5860;52.018;8.536;2023-09-18T06:19:58;20.90;99.90
11609;DHT22;5860;52.018;8.536;2023-09-18T06:22:25;20.90;99.90
11609;DHT22;5860;52.018;8.536;2023-09-18T06:24:51;20.90;99.90
11609;DHT22;5860;52.018;8.536;2023-09-18T06:27:18;20.90;99.90
11609;DHT22;5860;52.018;8.536;2023-09-18T06:29:45;21.00;99.90
11609;DHT22;5860;52.018;8.536;2023-09-18T06:32:12;21.00;99.90
11609;DHT22;5860;52.018;8.536;2023-09-18T06:34:39;20.90;99.90
11609;DHT22;5860;52.018;8.536;2023-09-18T06:37:10;20.90;99.90
11609;DHT22;5860;52.018;8.536;2023-09-18T06:39:39;21.00;99.90
11609;DHT22;5860;52.018;8.536;2023-09-18T06:42:06;21.00;99.90
11609;DHT22;5860;52.018;8.536;2023-09-18T06:44:33;20.90;99.90
11609;DHT22;5860;52.018;8.536;2023-09-18T06:47:00;21.00;99.90
11609;DHT22;5860;52.018;8.536;2023-09-18T06:49:27;21.10;99.90
11609;DHT22;5860;52.018;8.536;2023-09-18T06:51:55;21.20;86.10
11609;DHT22;5860;52.018;8.536;2023-09-18T06:54:21;21.30;1.00
11609;DHT22;5860;52.018;8.536;2023-09-18T06:56:49;21.50;1.00
11609;DHT22;5860;52.018;8.536;2023-09-18T06:59:15;21.50;1.00
11609;DHT22;5860;52.018;8.536;2023-09-18T07:01:42;21.60;1.00
11609;DHT22;5860;52.018;8.536;2023-09-18T07:04:10;21.60;99.90
11609;DHT22;5860;52.018;8.536;2023-09-18T07:06:37;21.80;99.90
11609;DHT22;5860;52.018;8.536;2023-09-18T07:09:04;21.60;1.00
11609;DHT22;5860;52.018;8.536;2023-09-18T07:11:34;21.60;1.00
11609;DHT22;5860;52.018;8.536;2023-09-18T07:14:01;21.70;99.90
11609;DHT22;5860;52.018;8.536;2023-09-18T07:16:29;21.60;1.00
11609;DHT22;5860;52.018;8.536;2023-09-18T07:18:56;21.60;1.00
11609;DHT22;5860;52.018;8.536;2023-09-18T07:21:23;21.60;1.00
11609;DHT22;5860;52.018;8.536;2023-09-18T07:23:50;21.80;99.90
11609;DHT22;5860;52.018;8.536;2023-09-18T07:26:17;21.70;99.90
11609;DHT22;5860;52.018;8.536;2023-09-18T07:28:44;21.80;99.90
11609;DHT22;5860;52.018;8.536;2023-09-18T07:31:11;21.70;99.90
11609;DHT22;5860;52.018;8.536;2023-09-18T07:33:39;22.20;1.00
11609;DHT22;5860;52.018;8.536;2023-09-18T07:36:06;22.60;11.60
11609;DHT22;5860;52.018;8.536;2023-09-18T07:38:32;22.60;1.00
11609;DHT22;5860;52.018;8.536;2023-09-18T07:41:00;22.90;99.90
11609;DHT22;5860;52.018;8.536;2023-09-18T07:43:26;22.80;1.00
11609;DHT22;5860;52.018;8.536;2023-09-18T07:45:53;22.70;1.00
11609;DHT22;5860;52.018;8.536;2023-09-18T07:48:24;22.80;1.00
11609;DHT22;5860;52.018;8.536;2023-09-18T07:50:51;22.80;1.00
11609;DHT22;5860;52.018;8.536;2023-09-18T07:53:18;22.90;1.00
11609;DHT22;5860;52.018;8.536;2023-09-18T07:55:54;22.80;1.00
11609;DHT22;5860;52.018;8.536;2023-09-18T07:58:21;23.10;1.00
11609;DHT22;5860;52.018;8.536;2023-09-18T08:00:48;23.10;99.90
11609;DHT22;5860;52.018;8.536;2023-09-18T08:03:18;22.90;1.00
11609;DHT22;5860;52.018;8.536;2023-09-18T08:05:45;22.80;74.90
11609;DHT22;5860;52.018;8.536;2023-09-18T08:08:14;22.70;1.00
11609;DHT22;5860;52.018;8.536;2023-09-18T08:10:41;22.50;75.10
11609;DHT22;5860;52.018;8.536;2023-09-18T08:13:08;22.40;99.90
11609;DHT22;5860;52.018;8.536;2023-09-18T08:15:35;22.40;99.90
11609;DHT22;5860;52.018;8.536;2023-09-18T08:18:02;22.20;1.00
11609;DHT22;5860;52.018;8.536;2023-09-18T08:20:29;22.20;1.00
11609;DHT22;5860;52.018;8.536;2023-09-18T08:22:57;22.20;1.00
11609;DHT22;5860;52.018;8.536;2023-09-18T08:25:24;22.20;70.60
11609;DHT22;5860;52.018;8.536;2023-09-18T08:27:50;22.10;99.90
11609;DHT22;5860;52.018;8.536;2023-09-18T08:30:18;22.10;99.90
11609;DHT22;5860;52.018;8.536;2023-09-18T08:32:47;22.00;99.90
11609;DHT22;5860;52.018;8.536;2023-09-18T08:35:14;22.00;1.00
11609;DHT22;5860;52.018;8.536;2023-09-18T08:37:42;21.80;1.00
11609;DHT22;5860;52.018;8.536;2023-09-18T08:40:13;21.80;1.00
11609;DHT22;5860;52.018;8.536;2023-09-18T08:42:45;21.90;52.30
11609;DHT22;5860;52.018;8.536;2023-09-18T08:45:22;21.90;1.00
11609;DHT22;5860;52.018;8.536;2023-09-18T08:47:51;21.70;6.40
11609;DHT22;5860;52.018;8.536;2023-09-18T08:50:19;21.90;1.00
11609;DHT22;5860;52.018;8.536;2023-09-18T08:52:47;21.80;99.90
11609;DHT22;5860;52.018;8.536;2023-09-18T08:55:16;21.70;99.90
11609;DHT22;5860;52.018;8.536;2023-09-18T08:57:44;21.80;99.90
11609;DHT22;5860;52.018;8.536;2023-09-18T09:00:13;21.90;99.90
11609;DHT22;5860;52.018;8.536;2023-09-18T09:02:44;22.00;1.00
11609;DHT22;5860;52.018;8.536;2023-09-18T09:05:11;22.10;1.00
11609;DHT22;5860;52.018;8.536;2023-09-18T09:07:39;22.00;1.00
11609;DHT22;5860;52.018;8.536;2023-09-18T09:10:06;22.00;1.00
11609;DHT22;5860;52.018;8.536;2023-09-18T09:12:53;22.10;99.90
11609;DHT22;5860;52.018;8.536;2023-09-18T09:15:28;22.10;1.00
11609;DHT22;5860;52.018;8.536;2023-09-18T09:18:04;22.00;1.00
11609;DHT22;5860;52.018;8.536;2023-09-18T09:20:32;22.00;37.20
11609;DHT22;5860;52.018;8.536;2023-09-18T09:23:01;22.10;1.00
11609;DHT22;5860;52.018;8.536;2023-09-18T09:25:30;22.20;99.90
11609;DHT22;5860;52.018;8.536;2023-09-18T09:28:02;22.40;1.00
11609;DHT22;5860;52.018;8.536;2023-09-18T09:30:32;22.20;6.50
11609;DHT22;5860;52.018;8.536;2023-09-18T09:32:59;22.30;1.00
11609;DHT22;5860;52.018;8.536;2023-09-18T09:35:32;22.20;99.90
11609;DHT22;5860;52.018;8.536;2023-09-18T09:38:09;22.10;99.90
11609;DHT22;5860;52.018;8.536;2023-09-18T09:40:40;22.30;99.90
11609;DHT22;5860;52.018;8.536;2023-09-18T09:43:09;22.40;48.20
11609;DHT22;5860;52.018;8.536;2023-09-18T09:45:37;22.40;96.80
11609;DHT22;5860;52.018;8.536;2023-09-18T09:48:06;22.30;99.90
11609;DHT22;5860;52.018;8.536;2023-09-18T09:50:43;22.30;99.90
11609;DHT22;5860;52.018;8.536;2023-09-18T09:53:14;22.30;99.90
11609;DHT22;5860;52.018;8.536;2023-09-18T09:55:41;22.40;99.90
11609;DHT22;5860;52.018;8.536;2023-09-18T09:58:09;22.20;59.60
11609;DHT22;5860;52.018;8.536;2023-09-18T10:00:47;22.20;99.90
11609;DHT22;5860;52.018;8.536;2023-09-18T10:03:18;22.20;99.90
11609;DHT22;5860;52.018;8.536;2023-09-18T10:05:52;22.10;1.00
11609;DHT22;5860;52.018;8.536;2023-09-18T10:08:23;22.10;1.00
11609;DHT22;5860;52.018;8.536;2023-09-18T10:10:54;22.10;1.00
11609;DHT22;5860;52.018;8.536;2023-09-18T10:16:31;22.20;99.90
11609;DHT22;5860;52.018;8.536;2023-09-18T10:24:50;22.50;99.90
11609;DHT22;5860;52.018;8.536;2023-09-18T10:27:20;22.70;1.00
11609;DHT22;5860;52.018;8.536;2023-09-18T10:29:51;22.90;1.00
11609;DHT22;5860;52.018;8.536;2023-09-18T10:32:19;22.80;99.90
11609;DHT22;5860;52.018;8.536;2023-09-18T10:34:48;22.60;99.90
11609;DHT22;5860;52.018;8.536;2023-09-18T10:37:15;22.50;99.90
11609;DHT22;5860;52.018;8.536;2023-09-18T10:39:42;22.80;1.00
11609;DHT22;5860;52.018;8.536;2023-09-18T10:42:16;22.70;99.90
11609;DHT22;5860;52.018;8.536;2023-09-18T10:44:43;22.90;99.90
11609;DHT22;5860;52.018;8.536;2023-09-18T10:47:11;23.00;42.90
11609;DHT22;5860;52.018;8.536;2023-09-18T10:49:41;23.00;1.00
11609;DHT22;5860;52.018;8.536;2023-09-18T10:52:12;22.90;1.00
11609;DHT22;5860;52.018;8.536;2023-09-18T10:54:40;22.80;99.90
11609;DHT22;5860;52.018;8.536;2023-09-18T10:57:07;22.70;27.90
11609;DHT22;5860;52.018;8.536;2023-09-18T10:59:34;23.00;99.90
11609;DHT22;5860;52.018;8.536;2023-09-18T11:02:04;23.00;50.90
11609;DHT22;5860;52.018;8.536;2023-09-18T11:04:33;23.10;1.00
11609;DHT22;5860;52.018;8.536;2023-09-18T11:07:04;23.20;61.60
11609;DHT22;5860;52.018;8.536;2023-09-18T11:09:41;23.10;99.90
11609;DHT22;5860;52.018;8.536;2023-09-18T11:12:09;22.80;99.90
11609;DHT22;5860;52.018;8.536;2023-09-18T11:14:46;23.00;99.90
11609;DHT22;5860;52.018;8.536;2023-09-18T11:17:36;22.60;1.00
11609;DHT22;5860;52.018;8.536;2023-09-18T11:22:58;22.50;99.90
11609;DHT22;5860;52.018;8.536;2023-09-18T11:28:16;22.70;1.00
11609;DHT22;5860;52.018;8.536;2023-09-18T11:30:55;22.70;99.90
11609;DHT22;5860;52.018;8.536;2023-09-18T11:33:41;22.80;1.00
11609;DHT22;5860;52.018;8.536;2023-09-18T11:36:28;23.00;99.90
11609;DHT22;5860;52.018;8.536;2023-09-18T11:38:58;23.00;99.90
11609;DHT22;5860;52.018;8.536;2023-09-18T11:41:33;23.10;99.90
11609;DHT22;5860;52.018;8.536;2023-09-18T11:46:49;23.30;99.90
11609;DHT22;5860;52.018;8.536;2023-09-18T11:49:23;23.30;99.90
11609;DHT22;5860;52.018;8.536;2023-09-18T11:51:54;23.70;1.00
11609;DHT22;5860;52.018;8.536;2023-09-18T11:54:24;24.00;1.00
11609;DHT22;5860;52.018;8.536;2023-09-18T11:56:51;24.10;1.00
11609;DHT22;5860;52.018;8.536;2023-09-18T11:59:41;24.00;99.90
11609;DHT22;5860;52.018;8.536;2023-09-18T12:02:14;23.40;36.90
11609;DHT22;5860;52.018;8.536;2023-09-18T12:04:55;23.40;99.90
11609;DHT22;5860;52.018;8.536;2023-09-18T12:07:23;23.60;99.90
11609;DHT22;5860;52.018;8.536;2023-09-18T12:09:51;23.30;1.00
11609;DHT22;5860;52.018;8.536;2023-09-18T12:12:21;23.30;1.00
11609;DHT22;5860;52.018;8.536;2023-09-18T12:14:48;23.20;99.90
11609;DHT22;5860;52.018;8.536;2023-09-18T12:17:16;23.40;99.90
11609;DHT22;5860;52.018;8.536;2023-09-18T12:19:53;23.60;1.00
11609;DHT22;5860;52.018;8.536;2023-09-18T12:22:27;23.60;99.90
11609;DHT22;5860;52.018;8.536;2023-09-18T12:25:11;23.40;99.90
11609;DHT22;5860;52.018;8.536;2023-09-18T12:27:42;23.20;99.90
11609;DHT22;5860;52.018;8.536;2023-09-18T12:30:09;23.10;99.90
11609;DHT22;5860;52.018;8.536;2023-09-18T12:32:38;23.20;99.90
11609;DHT22;5860;52.018;8.536;2023-09-18T12:35:08;23.30;99.90
11609;DHT22;5860;52.018;8.536;2023-09-18T12:37:40;23.20;99.90
11609;DHT22;5860;52.018;8.536;2023-09-18T12:40:27;23.40;99.90
11609;DHT22;5860;52.018;8.536;2023-09-18T12:42:56;23.60;90.40
11609;DHT22;5860;52.018;8.536;2023-09-18T12:45:27;23.60;1.00
11609;DHT22;5860;52.018;8.536;2023-09-18T12:47:55;23.70;16.00
11609;DHT22;5860;52.018;8.536;2023-09-18T12:50:25;23.70;99.90
11609;DHT22;5860;52.018;8.536;2023-09-18T12:52:52;23.70;1.00
11609;DHT22;5860;52.018;8.536;2023-09-18T12:55:26;23.70;99.90
11609;DHT22;5860;52.018;8.536;2023-09-18T12:57:54;24.10;99.90
11609;DHT22;5860;52.018;8.536;2023-09-18T13:00:22;24.50;1.00
11609;DHT22;5860;52.018;8.536;2023-09-18T13:02:50;24.40;1.00
11609;DHT22;5860;52.018;8.536;2023-09-18T13:05:24;24.20;1.00
11609;DHT22;5860;52.018;8.536;2023-09-18T13:07:53;24.40;1.00
11609;DHT22;5860;52.018;8.536;2023-09-18T13:10:20;24.40;1.00
11609;DHT22;5860;52.018;8.536;2023-09-18T13:12:53;24.40;1.00
11609;DHT22;5860;52.018;8.536;2023-09-18T13:15:31;24.30;1.00
11609;DHT22;5860;52.018;8.536;2023-09-18T13:18:00;24.30;1.00
11609;DHT22;5860;52.018;8.536;2023-09-18T13:20:31;24.30;1.00
11609;DHT22;5860;52.018;8.536;2023-09-18T13:22:59;24.00;1.00
11609;DHT22;5860;52.018;8.536;2023-09-18T13:25:33;24.10;1.00
11609;DHT22;5860;52.018;8.536;2023-09-18T13:28:06;24.00;99.90
11609;DHT22;5860;52.018;8.536;2023-09-18T13:30:36;24.00;78.00
11609;DHT22;5860;52.018;8.536;2023-09-18T13:33:07;24.10;1.00
11609;DHT22;5860;52.018;8.536;2023-09-18T13:35:37;23.90;99.90
11609;DHT22;5860;52.018;8.536;2023-09-18T13:38:04;24.10;38.40
11609;DHT22;5860;52.018;8.536;2023-09-18T13:40:35;24.00;23.20
11609;DHT22;5860;52.018;8.536;2023-09-18T13:43:06;24.00;99.90
11609;DHT22;5860;52.018;8.536;2023-09-18T13:45:35;23.90;99.90
11609;DHT22;5860;52.018;8.536;2023-09-18T13:48:05;24.00;99.90
11609;DHT22;5860;52.018;8.536;2023-09-18T13:50:34;24.00;1.00
11609;DHT22;5860;52.018;8.536;2023-09-18T13:53:02;24.20;1.00
11609;DHT22;5860;52.018;8.536;2023-09-18T13:55:31;24.20;1.00
11609;DHT22;5860;52.018;8.536;2023-09-18T13:57:58;24.20;99.90
11609;DHT22;5860;52.018;8.536;2023-09-18T14:00:25;24.10;1.00
11609;DHT22;5860;52.018;8.536;2023-09-18T14:02:53;23.90;50.70
11609;DHT22;5860;52.018;8.536;2023-09-18T14:05:20;23.90;99.90
11609;DHT22;5860;52.018;8.536;2023-09-18T14:07:47;23.90;99.90
11609;DHT22;5860;52.018;8.536;2023-09-18T14:10:15;23.80;99.90
11609;DHT22;5860;52.018;8.536;2023-09-18T14:12:43;23.60;99.90
11609;DHT22;5860;52.018;8.536;2023-09-18T14:15:10;23.50;99.90
11609;DHT22;5860;52.018;8.536;2023-09-18T14:17:37;23.60;99.90
11609;DHT22;5860;52.018;8.536;2023-09-18T14:20:05;23.50;99.90
11609;DHT22;5860;52.018;8.536;2023-09-18T14:22:36;23.50;99.90
11609;DHT22;5860;52.018;8.536;2023-09-18T14:25:04;23.50;99.90
11609;DHT22;5860;52.018;8.536;2023-09-18T14:27:33;23.40;99.90
11609;DHT22;5860;52.018;8.536;2023-09-18T14:30:03;23.30;99.90
11609;DHT22;5860;52.018;8.536;2023-09-18T14:32:34;23.10;1.00
11609;DHT22;5860;52.018;8.536;2023-09-18T14:35:04;23.10;1.00
11609;DHT22;5860;52.018;8.536;2023-09-18T14:37:31;23.10;1.00
11609;DHT22;5860;52.018;8.536;2023-09-18T14:39:59;23.10;1.00
11609;DHT22;5860;52.018;8.536;2023-09-18T14:42:26;23.10;1.00
11609;DHT22;5860;52.018;8.536;2023-09-18T14:44:53;23.10;99.90
11609;DHT22;5860;52.018;8.536;2023-09-18T14:47:19;22.90;99.90
11609;DHT22;5860;52.018;8.536;2023-09-18T14:49:49;22.50;1.00
11609;DHT22;5860;52.018;8.536;2023-09-18T14:52:16;22.20;1.00
11609;DHT22;5860;52.018;8.536;2023-09-18T14:54:45;21.80;1.00
11609;DHT22;5860;52.018;8.536;2023-09-18T14:57:13;21.60;1.00
11609;DHT22;5860;52.018;8.536;2023-09-18T14:59:40;21.30;1.00
11609;DHT22;5860;52.018;8.536;2023-09-18T15:02:09;21.30;1.00
11609;DHT22;5860;52.018;8.536;2023-09-18T15:04:36;21.30;46.30
11609;DHT22;5860;52.018;8.536;2023-09-18T15:07:03;21.50;24.40
11609;DHT22;5860;52.018;8.536;2023-09-18T15:09:30;21.20;99.90
11609;DHT22;5860;52.018;8.536;2023-09-18T15:11:57;20.90;99.90
11609;DHT22;5860;52.018;8.536;2023-09-18T15:14:24;21.10;99.90
11609;DHT22;5860;52.018;8.536;2023-09-18T15:16:51;20.80;99.90
11609;DHT22;5860;52.018;8.536;2023-09-18T15:19:18;20.90;99.90
11609;DHT22;5860;52.018;8.536;2023-09-18T15:21:47;21.20;99.90
11609;DHT22;5860;52.018;8.536;2023-09-18T15:24:14;21.30;1.00
11609;DHT22;5860;52.018;8.536;2023-09-18T15:26:41;21.40;99.80
11609;DHT22;5860;52.018;8.536;2023-09-18T15:29:08;21.60;1.00
11609;DHT22;5860;52.018;8.536;2023-09-18T15:31:35;21.60;99.90
11609;DHT22;5860;52.018;8.536;2023-09-18T15:34:02;21.80;99.90
11609;DHT22;5860;52.018;8.536;2023-09-18T15:36:30;21.70;99.90
11609;DHT22;5860;52.018;8.536;2023-09-18T15:38:58;21.80;99.90
11609;DHT22;5860;52.018;8.536;2023-09-18T15:41:27;21.90;99.90
11609;DHT22;5860;52.018;8.536;2023-09-18T15:43:55;21.80;1.00
11609;DHT22;5860;52.018;8.536;2023-09-18T15:46:22;22.00;1.00
11609;DHT22;5860;52.018;8.536;2023-09-18T15:48:49;21.90;38.90
11609;DHT22;5860;52.018;8.536;2023-09-18T15:51:17;21.80;99.90
11609;DHT22;5860;52.018;8.536;2023-09-18T15:53:45;21.70;74.80
11609;DHT22;5860;52.018;8.536;2023-09-18T15:56:12;21.70;99.90
11609;DHT22;5860;52.018;8.536;2023-09-18T15:58:40;21.70;99.90
11609;DHT22;5860;52.018;8.536;2023-09-18T16:01:07;21.70;99.90
11609;DHT22;5860;52.018;8.536;2023-09-18T16:03:38;21.70;99.90
11609;DHT22;5860;52.018;8.536;2023-09-18T16:06:07;21.80;99.90
11609;DHT22;5860;52.018;8.536;2023-09-18T16:08:34;21.70;99.90
11609;DHT22;5860;52.018;8.536;2023-09-18T16:11:01;21.60;99.90
11609;DHT22;5860;52.018;8.536;2023-09-18T16:13:29;21.60;99.90
11609;DHT22;5860;52.018;8.536;2023-09-18T16:15:55;21.50;99.90
11609;DHT22;5860;52.018;8.536;2023-09-18T16:18:25;21.50;99.90
11609;DHT22;5860;52.018;8.536;2023-09-18T16:20:51;21.50;99.90
11609;DHT22;5860;52.018;8.536;2023-09-18T16:23:19;21.60;99.90
11609;DHT22;5860;52.018;8.536;2023-09-18T16:25:45;21.80;1.00
11609;DHT22;5860;52.018;8.536;2023-09-18T16:28:12;21.90;99.90